createdAt,value
2018-05-31T00:00:17.645Z,6.53
2018-05-31T00:02:45.860Z,6.30
2018-05-31T00:05:14.855Z,5.97
2018-05-31T00:07:43.835Z,6.23
2018-05-31T00:10:12.071Z,6.37
2018-05-31T00:12:40.279Z,6.47
2018-05-31T00:15:08.513Z,6.53
2018-05-31T00:17:36.731Z,6.33
2018-05-31T00:20:04.981Z,5.83
2018-05-31T00:22:33.215Z,6.57
2018-05-31T00:25:02.237Z,6.20
2018-05-31T00:27:31.204Z,6.27
2018-05-31T00:29:59.452Z,6.53
2018-05-31T00:32:27.655Z,6.53
2018-05-31T00:34:55.895Z,6.47
2018-05-31T00:37:24.112Z,7.00
2018-05-31T00:39:52.390Z,6.30
2018-05-31T00:42:20.655Z,6.97
2018-05-31T00:44:48.921Z,11.63
2018-05-31T00:47:17.933Z,8.17
2018-05-31T00:49:46.934Z,6.60
2018-05-31T00:52:15.171Z,6.67
2018-05-31T00:54:43.391Z,7.00
2018-05-31T00:57:11.618Z,7.03
2018-05-31T00:59:39.856Z,7.33
2018-05-31T01:02:08.063Z,6.57
2018-05-31T01:04:36.352Z,6.90
2018-05-31T01:07:04.581Z,6.40
2018-05-31T01:09:32.796Z,7.03
2018-05-31T01:12:01.073Z,7.93
2018-05-31T01:14:29.243Z,7.10
2018-05-31T01:16:57.495Z,7.47
2018-05-31T01:19:25.752Z,6.70
2018-05-31T01:21:53.965Z,7.60
2018-05-31T01:24:22.180Z,7.00
2018-05-31T01:26:51.197Z,6.90
2018-05-31T01:29:19.401Z,7.13
2018-05-31T01:31:47.630Z,7.60
2018-05-31T01:34:16.608Z,8.20
2018-05-31T01:36:45.611Z,7.33
2018-05-31T01:39:17.564Z,8.03
2018-05-31T01:41:46.582Z,8.13
2018-05-31T01:44:14.796Z,7.40
2018-05-31T01:46:43.025Z,8.40
2018-05-31T01:49:12.021Z,7.63
2018-05-31T01:51:40.245Z,7.70
2018-05-31T01:54:09.245Z,7.83
2018-05-31T01:56:37.494Z,8.07
2018-05-31T01:59:06.477Z,7.67
2018-05-31T02:01:34.731Z,7.17
2018-05-31T02:04:03.721Z,7.70
2018-05-31T02:06:32.713Z,7.70
2018-05-31T02:09:00.954Z,8.00
2018-05-31T02:11:29.163Z,8.17
2018-05-31T02:13:58.170Z,7.30
2018-05-31T02:16:26.381Z,8.33
2018-05-31T02:18:54.611Z,7.80
2018-05-31T02:21:23.616Z,8.33
2018-05-31T02:23:51.853Z,8.37
2018-05-31T02:26:20.071Z,8.20
2018-05-31T02:28:48.291Z,8.17
2018-05-31T02:31:16.539Z,8.57
2018-05-31T02:33:44.754Z,8.50
2018-05-31T02:36:12.983Z,8.27
2018-05-31T02:38:41.225Z,7.80
2018-05-31T02:41:10.205Z,8.00
2018-05-31T02:43:38.424Z,8.73
2018-05-31T02:46:06.655Z,7.93
2018-05-31T02:48:34.872Z,8.40
2018-05-31T02:51:03.116Z,9.07
2018-05-31T02:53:31.354Z,8.60
2018-05-31T02:55:59.575Z,9.57
2018-05-31T02:58:28.592Z,9.60
2018-05-31T03:00:56.816Z,9.30
2018-05-31T03:03:25.049Z,9.13
2018-05-31T03:05:53.288Z,8.83
2018-05-31T03:08:21.521Z,9.33
2018-05-31T03:10:49.760Z,9.57
2018-05-31T03:13:18.745Z,9.33
2018-05-31T03:15:47.760Z,9.60
2018-05-31T03:18:15.991Z,9.33
2018-05-31T03:20:44.229Z,9.67
2018-05-31T03:23:12.467Z,9.87
2018-05-31T03:25:41.480Z,10.03
2018-05-31T03:28:09.706Z,10.33
2018-05-31T03:30:37.960Z,9.30
2018-05-31T03:33:06.212Z,9.40
2018-05-31T03:35:34.437Z,10.37
2018-05-31T03:38:02.710Z,9.70
2018-05-31T03:40:30.920Z,9.87
2018-05-31T03:42:59.904Z,9.47
2018-05-31T03:45:28.909Z,10.53
2018-05-31T03:47:57.161Z,10.23
2018-05-31T03:50:25.386Z,10.37
2018-05-31T03:52:53.612Z,10.40
2018-05-31T03:55:21.866Z,11.10
2018-05-31T03:57:50.097Z,10.03
2018-05-31T04:00:18.349Z,10.30
2018-05-31T04:02:47.433Z,10.43
2018-05-31T04:05:15.651Z,11.43
2018-05-31T04:07:43.899Z,10.73
2018-05-31T04:10:12.917Z,10.83
2018-05-31T04:12:41.172Z,11.43
2018-05-31T04:15:10.168Z,11.70
2018-05-31T04:17:39.176Z,10.97
2018-05-31T04:20:07.433Z,10.83
2018-05-31T04:22:36.460Z,10.80
2018-05-31T04:25:04.685Z,11.53
2018-05-31T04:27:32.931Z,11.03
2018-05-31T04:30:01.170Z,11.10
2018-05-31T04:32:29.422Z,12.30
2018-05-31T04:34:57.680Z,11.80
2018-05-31T04:37:25.932Z,10.67
2018-05-31T04:39:54.195Z,11.37
2018-05-31T04:42:22.446Z,11.50
2018-05-31T04:44:50.677Z,11.87
2018-05-31T04:47:18.946Z,11.33
2018-05-31T04:49:47.263Z,11.83
2018-05-31T04:52:15.472Z,12.03
2018-05-31T04:54:43.732Z,12.50
2018-05-31T04:57:12.731Z,12.00
2018-05-31T04:59:41.731Z,12.07
2018-05-31T05:02:09.975Z,11.50
2018-05-31T05:04:38.192Z,12.80
2018-05-31T05:07:06.466Z,10.90
2018-05-31T05:09:34.694Z,11.70
2018-05-31T05:12:02.946Z,11.70
2018-05-31T05:14:31.172Z,12.57
2018-05-31T05:16:59.435Z,12.90
2018-05-31T05:19:27.705Z,14.13
2018-05-31T05:21:55.936Z,12.23
2018-05-31T05:24:24.166Z,11.67
2018-05-31T05:26:53.181Z,11.83
2018-05-31T05:29:21.412Z,13.17
2018-05-31T05:31:49.661Z,12.97
2018-05-31T05:34:17.904Z,13.50
2018-05-31T05:36:46.927Z,12.30
2018-05-31T05:39:15.147Z,12.00
2018-05-31T05:41:43.409Z,12.33
2018-05-31T05:44:11.643Z,13.40
2018-05-31T05:46:39.874Z,13.87
2018-05-31T05:49:08.108Z,12.73
2018-05-31T05:51:36.369Z,14.87
2018-05-31T05:54:04.634Z,13.77
2018-05-31T05:56:32.877Z,12.37
2018-05-31T05:59:01.125Z,14.60
2018-05-31T06:01:29.355Z,12.73
2018-05-31T06:03:58.380Z,13.60
2018-05-31T06:06:26.611Z,14.23
2018-05-31T06:08:56.551Z,13.77
2018-05-31T06:11:24.809Z,13.73
2018-05-31T06:13:53.796Z,13.87
2018-05-31T06:16:22.826Z,12.80
2018-05-31T06:18:51.085Z,13.37
2018-05-31T06:21:19.325Z,12.17
2018-05-31T06:23:47.556Z,12.47
2018-05-31T06:26:15.843Z,11.87
2018-05-31T06:28:44.056Z,12.70
2018-05-31T06:31:13.086Z,12.47
2018-05-31T06:33:42.080Z,12.53
2018-05-31T06:36:10.324Z,12.40
2018-05-31T06:38:38.551Z,12.97
2018-05-31T06:41:06.802Z,13.07
2018-05-31T06:43:35.800Z,15.07
2018-05-31T06:46:04.044Z,12.50
2018-05-31T06:48:32.277Z,11.17
2018-05-31T06:51:00.650Z,10.90
2018-05-31T06:53:29.703Z,11.13
2018-05-31T06:55:57.932Z,10.83
2018-05-31T06:58:26.160Z,10.93
2018-05-31T07:00:55.216Z,9.57
2018-05-31T07:03:24.171Z,10.37
2018-05-31T07:05:52.434Z,10.73
2018-05-31T07:08:21.431Z,9.30
2018-05-31T07:10:49.679Z,9.03
2018-05-31T07:13:17.891Z,9.60
2018-05-31T07:15:46.156Z,8.40
2018-05-31T07:18:15.164Z,8.80
2018-05-31T07:20:43.409Z,8.27
2018-05-31T07:23:11.627Z,8.67
2018-05-31T07:25:39.909Z,8.90
2018-05-31T07:28:08.137Z,8.20
2018-05-31T07:30:36.383Z,8.00
2018-05-31T07:33:04.609Z,7.63
2018-05-31T07:35:33.620Z,7.80
2018-05-31T07:38:01.854Z,8.07
2018-05-31T07:40:30.087Z,9.10
2018-05-31T07:42:58.341Z,8.30
2018-05-31T07:45:26.587Z,8.17
2018-05-31T07:47:54.806Z,8.20
2018-05-31T07:50:23.046Z,8.40
2018-05-31T07:52:52.025Z,7.33
2018-05-31T07:55:20.273Z,8.73
2018-05-31T07:57:48.516Z,7.83
2018-05-31T08:00:16.761Z,7.70
2018-05-31T08:02:44.998Z,7.40
2018-05-31T08:05:13.247Z,7.60
2018-05-31T08:07:41.498Z,7.63
2018-05-31T08:10:10.488Z,7.33
2018-05-31T08:12:39.508Z,8.03
2018-05-31T08:15:07.749Z,7.93
2018-05-31T08:17:35.980Z,7.60
2018-05-31T08:20:04.219Z,7.83
2018-05-31T08:22:33.252Z,8.43
2018-05-31T08:25:01.482Z,7.83
2018-05-31T08:27:30.473Z,8.73
2018-05-31T08:29:59.488Z,7.70
2018-05-31T08:32:27.741Z,7.90
2018-05-31T08:34:55.967Z,8.30
2018-05-31T08:37:24.203Z,8.70
2018-05-31T08:39:53.211Z,7.93
2018-05-31T08:42:21.439Z,8.90
2018-05-31T08:44:49.697Z,8.40
2018-05-31T08:47:17.940Z,10.37
2018-05-31T08:49:46.158Z,8.87
2018-05-31T08:52:14.410Z,9.20
2018-05-31T08:54:42.634Z,8.40
2018-05-31T08:57:10.856Z,8.90
2018-05-31T08:59:39.108Z,9.00
2018-05-31T09:02:08.120Z,8.60
2018-05-31T09:04:36.346Z,8.33
2018-05-31T09:07:04.583Z,9.07
2018-05-31T09:09:32.825Z,9.70
2018-05-31T09:12:01.820Z,8.73
2018-05-31T09:14:30.837Z,9.23
2018-05-31T09:16:59.056Z,9.13
2018-05-31T09:19:27.301Z,8.83
2018-05-31T09:21:55.605Z,8.17
2018-05-31T09:24:24.580Z,8.67
2018-05-31T09:26:52.830Z,8.53
2018-05-31T09:29:21.077Z,8.43
2018-05-31T09:31:49.291Z,8.70
2018-05-31T09:34:17.546Z,11.23
2018-05-31T09:36:45.789Z,9.10
2018-05-31T09:39:14.016Z,8.23
2018-05-31T09:41:42.265Z,9.40
2018-05-31T09:44:11.257Z,8.37
2018-05-31T09:46:40.314Z,8.53
2018-05-31T09:49:08.510Z,8.03
2018-05-31T09:51:36.750Z,14.10
2018-05-31T09:54:05.007Z,8.67
2018-05-31T09:56:33.228Z,8.63
2018-05-31T09:59:01.495Z,9.77
2018-05-31T10:01:29.712Z,11.13
2018-05-31T10:03:58.708Z,8.73
2018-05-31T10:06:27.719Z,8.13
2018-05-31T10:08:55.957Z,8.60
2018-05-31T10:11:24.204Z,7.03
2018-05-31T10:13:52.419Z,8.47
2018-05-31T10:16:21.477Z,7.10
2018-05-31T10:18:49.697Z,7.23
2018-05-31T10:21:18.684Z,8.20
2018-05-31T10:23:47.712Z,7.27
2018-05-31T10:26:15.947Z,6.57
2018-05-31T10:28:44.235Z,6.07
2018-05-31T10:31:12.446Z,7.00
2018-05-31T10:33:40.676Z,7.87
2018-05-31T10:36:08.924Z,7.07
2018-05-31T10:38:37.156Z,6.73
2018-05-31T10:41:05.420Z,6.50
2018-05-31T10:43:34.420Z,7.93
2018-05-31T10:46:03.400Z,5.30
2018-05-31T10:48:32.405Z,5.83
2018-05-31T10:51:01.406Z,6.37
2018-05-31T10:53:29.655Z,6.60
2018-05-31T10:55:57.889Z,5.77
2018-05-31T10:58:26.116Z,5.70
2018-05-31T11:00:55.126Z,5.77
2018-05-31T11:03:23.353Z,5.83
2018-05-31T11:05:51.590Z,6.40
2018-05-31T11:08:19.824Z,6.50
2018-05-31T11:10:48.079Z,6.50
2018-05-31T11:13:16.312Z,6.47
2018-05-31T11:15:44.564Z,6.70
2018-05-31T11:18:13.547Z,6.37
2018-05-31T11:20:41.807Z,6.30
2018-05-31T11:23:10.021Z,5.93
2018-05-31T11:25:39.037Z,6.47
2018-05-31T11:28:07.252Z,6.33
2018-05-31T11:30:35.459Z,6.10
2018-05-31T11:33:04.472Z,6.60
2018-05-31T11:35:32.766Z,6.10
2018-05-31T11:38:00.982Z,7.00
2018-05-31T11:40:29.205Z,6.33
2018-05-31T11:42:57.444Z,6.60
2018-05-31T11:45:26.439Z,7.40
2018-05-31T11:47:54.677Z,6.80
2018-05-31T11:50:22.895Z,6.20
2018-05-31T11:52:51.933Z,6.20
2018-05-31T11:55:20.172Z,6.57
2018-05-31T11:57:48.384Z,7.65
2018-05-31T12:00:16.637Z,6.03
2018-05-31T12:02:45.655Z,6.70
2018-05-31T12:05:13.883Z,6.90
2018-05-31T12:07:42.906Z,7.28
2018-05-31T12:10:11.153Z,6.50
2018-05-31T12:12:40.158Z,6.32
2018-05-31T12:15:09.174Z,6.30
2018-05-31T12:17:37.504Z,6.80
2018-05-31T12:20:06.441Z,6.85
2018-05-31T12:22:34.695Z,6.65
2018-05-31T12:25:03.729Z,7.20
2018-05-31T12:27:31.984Z,6.60
2018-05-31T12:30:00.204Z,6.45
2018-05-31T12:32:28.467Z,6.78
2018-05-31T12:34:56.725Z,6.53
2018-05-31T12:37:24.939Z,7.22
2018-05-31T12:39:53.205Z,7.37
2018-05-31T12:42:21.502Z,8.52
2018-05-31T12:44:49.742Z,7.40
2018-05-31T12:47:17.972Z,7.30
2018-05-31T12:49:47.000Z,6.85
2018-05-31T12:52:15.232Z,8.32
2018-05-31T12:54:43.501Z,7.40
2018-05-31T12:57:11.786Z,7.43
2018-05-31T12:59:40.759Z,7.35
2018-05-31T13:02:09.011Z,7.28
2018-05-31T13:04:37.241Z,8.57
2018-05-31T13:07:06.233Z,7.80
2018-05-31T13:09:35.262Z,7.70
2018-05-31T13:12:03.487Z,8.45
2018-05-31T13:14:31.708Z,8.88
2018-05-31T13:16:59.973Z,8.48
2018-05-31T13:19:28.979Z,8.10
2018-05-31T13:21:57.238Z,7.85
2018-05-31T13:24:26.247Z,8.30
2018-05-31T13:26:54.469Z,7.55
2018-05-31T13:29:22.712Z,8.38
2018-05-31T13:31:50.964Z,8.63
2018-05-31T13:34:19.205Z,8.20
2018-05-31T13:36:47.423Z,8.25
2018-05-31T13:39:15.676Z,7.82
2018-05-31T13:41:44.703Z,9.30
2018-05-31T13:44:12.944Z,8.57
2018-05-31T13:46:41.180Z,8.98
2018-05-31T13:49:11.796Z,8.93
2018-05-31T13:51:40.021Z,9.27
2018-05-31T13:54:08.273Z,9.30
2018-05-31T13:56:36.545Z,9.00
2018-05-31T13:59:04.764Z,8.48
2018-05-31T14:01:33.856Z,8.88
2018-05-31T14:04:02.042Z,8.18
2018-05-31T14:06:30.320Z,8.48
2018-05-31T14:08:58.573Z,8.43
2018-05-31T14:11:26.825Z,9.57
2018-05-31T14:13:55.069Z,8.70
2018-05-31T14:16:23.341Z,9.57
2018-05-31T14:18:51.574Z,8.95
2018-05-31T14:21:19.804Z,8.70
2018-05-31T14:23:48.054Z,8.38
2018-05-31T14:26:16.341Z,8.80
2018-05-31T14:28:44.595Z,9.90
2018-05-31T14:31:13.604Z,8.90
2018-05-31T14:33:41.832Z,9.65
2018-05-31T14:36:10.090Z,9.50
2018-05-31T14:38:38.311Z,8.65
2018-05-31T14:41:07.317Z,11.77
2018-05-31T14:43:36.353Z,10.15
2018-05-31T14:46:04.585Z,8.77
2018-05-31T14:48:33.590Z,8.50
2018-05-31T14:51:01.853Z,9.00
2018-05-31T14:53:30.864Z,9.45
2018-05-31T14:55:59.091Z,9.20
2018-05-31T14:58:27.360Z,8.38
2018-05-31T15:00:55.608Z,7.62
2018-05-31T15:03:24.427Z,8.38
2018-05-31T15:05:52.701Z,9.20
2018-05-31T15:08:21.332Z,8.05
2018-05-31T15:10:49.581Z,8.48
2018-05-31T15:13:18.347Z,8.50
2018-05-31T15:15:46.612Z,9.80
2018-05-31T15:18:14.840Z,8.98
2018-05-31T15:20:43.884Z,9.18
2018-05-31T15:23:12.121Z,10.10
2018-05-31T15:25:40.422Z,9.85
2018-05-31T15:28:08.650Z,9.32
2018-05-31T15:30:36.920Z,12.80
2018-05-31T15:33:05.165Z,9.00
2018-05-31T15:35:33.432Z,12.45
2018-05-31T15:38:01.647Z,8.98
2018-05-31T15:40:29.915Z,9.13
2018-05-31T15:42:58.210Z,9.27
2018-05-31T15:45:26.448Z,8.52
2018-05-31T15:47:54.680Z,8.85
2018-05-31T15:50:23.674Z,9.18
2018-05-31T15:52:52.687Z,7.93
2018-05-31T15:55:20.950Z,8.48
2018-05-31T15:57:49.242Z,8.15
2018-05-31T16:00:17.508Z,8.15
2018-05-31T16:02:46.499Z,8.93
2018-05-31T16:05:15.510Z,8.70
2018-05-31T16:07:43.756Z,9.13
2018-05-31T16:10:12.771Z,9.02
2018-05-31T16:12:41.081Z,8.70
2018-05-31T16:15:09.301Z,9.80
2018-05-31T16:17:38.303Z,9.32
2018-05-31T16:20:07.313Z,9.25
2018-05-31T16:22:35.613Z,8.93
2018-05-31T16:25:03.901Z,10.60
2018-05-31T16:27:32.228Z,9.88
2018-05-31T16:30:01.237Z,10.30
2018-05-31T16:32:29.519Z,9.48
2018-05-31T16:34:57.764Z,9.20
2018-05-31T16:37:26.022Z,10.30
2018-05-31T16:39:54.275Z,10.55
2018-05-31T16:42:22.514Z,12.35
2018-05-31T16:44:50.763Z,9.85
2018-05-31T16:47:19.014Z,10.00
2018-05-31T16:49:47.269Z,9.80
2018-05-31T16:52:15.517Z,10.05
2018-05-31T16:54:44.548Z,9.65
2018-05-31T16:57:12.769Z,9.77
2018-05-31T16:59:41.788Z,8.95
2018-05-31T17:02:10.025Z,8.73
2018-05-31T17:04:38.289Z,9.05
2018-05-31T17:07:06.516Z,9.07
2018-05-31T17:09:34.756Z,9.02
2018-05-31T17:12:03.012Z,9.10
2018-05-31T17:14:31.264Z,9.00
2018-05-31T17:16:59.488Z,8.25
2018-05-31T17:19:27.787Z,9.43
2018-05-31T17:21:56.807Z,9.25
2018-05-31T17:24:25.065Z,8.95
2018-05-31T17:26:54.125Z,8.68
2018-05-31T17:29:22.379Z,8.45
2018-05-31T17:31:50.649Z,9.50
2018-05-31T17:34:18.976Z,8.77
2018-05-31T17:36:47.959Z,8.80
2018-05-31T17:39:16.213Z,8.02
2018-05-31T17:41:44.469Z,9.85
2018-05-31T17:44:12.714Z,9.35
2018-05-31T17:46:40.935Z,8.38
2018-05-31T17:49:09.400Z,8.90
2018-05-31T17:51:37.640Z,9.05
2018-05-31T17:54:06.659Z,8.63
2018-05-31T17:56:34.884Z,8.93
2018-05-31T17:59:03.141Z,9.38
2018-05-31T18:01:31.372Z,9.20
2018-05-31T18:03:59.631Z,8.65
2018-05-31T18:06:28.662Z,9.07
2018-05-31T18:08:56.880Z,9.90
2018-05-31T18:11:25.119Z,9.95
2018-05-31T18:13:53.365Z,9.10
2018-05-31T18:16:22.391Z,9.77
2018-05-31T18:18:50.636Z,8.85
2018-05-31T18:21:18.868Z,8.02
2018-05-31T18:23:47.119Z,9.07
2018-05-31T18:26:15.339Z,12.45
2018-05-31T18:28:44.351Z,9.35
2018-05-31T18:31:12.637Z,9.55
2018-05-31T18:33:40.854Z,10.07
2018-05-31T18:36:09.099Z,11.52
2018-05-31T18:38:37.343Z,9.20
2018-05-31T18:41:06.359Z,9.93
2018-05-31T18:43:35.360Z,9.57
2018-05-31T18:46:03.591Z,10.05
2018-05-31T18:48:31.896Z,8.27
2018-05-31T18:51:00.904Z,9.55
2018-05-31T18:53:29.133Z,8.63
2018-05-31T18:55:57.384Z,8.10
2018-05-31T18:58:25.623Z,8.50
2018-05-31T19:00:53.871Z,8.57
2018-05-31T19:03:22.120Z,8.40
2018-05-31T19:05:50.367Z,8.00
2018-05-31T19:08:18.614Z,7.95
2018-05-31T19:10:46.856Z,8.13
2018-05-31T19:13:20.807Z,7.90
2018-05-31T19:15:49.054Z,7.73
2018-05-31T19:18:22.964Z,7.65
2018-05-31T19:20:51.212Z,7.97
2018-05-31T19:23:19.445Z,8.10
2018-05-31T19:25:48.461Z,7.50
2018-05-31T19:28:16.712Z,7.47
2018-05-31T19:30:51.496Z,7.78
2018-05-31T19:33:19.722Z,7.68
2018-05-31T19:35:53.634Z,7.90
2018-05-31T19:38:21.856Z,8.20
2018-05-31T19:40:50.124Z,7.67
2018-05-31T19:43:24.116Z,6.87
2018-05-31T19:45:52.373Z,7.87
2018-05-31T19:48:20.597Z,7.85
2018-05-31T19:50:48.820Z,8.07
2018-05-31T19:53:22.697Z,7.50
2018-05-31T19:55:50.949Z,8.37
2018-05-31T19:58:24.908Z,7.47
2018-05-31T20:00:59.651Z,9.50
2018-05-31T20:03:30.835Z,8.53
2018-05-31T20:05:59.074Z,8.55
2018-05-31T20:08:27.316Z,8.10
2018-05-31T20:10:55.544Z,7.72
2018-05-31T20:13:23.820Z,9.77
2018-05-31T20:15:52.052Z,11.07
2018-05-31T20:18:21.661Z,7.23
2018-05-31T20:20:50.694Z,6.73
2018-05-31T20:23:19.658Z,6.73
2018-05-31T20:25:48.713Z,7.50
2018-05-31T20:28:16.953Z,7.87
2018-05-31T20:30:45.193Z,7.40
2018-05-31T20:33:13.420Z,7.30
2018-05-31T20:35:41.635Z,7.43
2018-05-31T20:38:09.879Z,8.00
2018-05-31T20:40:38.105Z,7.33
2018-05-31T20:43:07.112Z,7.47
2018-05-31T20:45:35.337Z,7.50
2018-05-31T20:48:03.600Z,7.43
2018-05-31T20:50:31.840Z,6.57
2018-05-31T20:53:00.071Z,7.27
2018-05-31T20:55:28.354Z,7.90
2018-05-31T20:57:56.565Z,7.67
2018-05-31T21:00:24.799Z,7.03
2018-05-31T21:02:53.024Z,8.60
2018-05-31T21:05:21.268Z,8.30
2018-05-31T21:07:49.517Z,7.40
2018-05-31T21:10:18.550Z,8.93
2018-05-31T21:12:47.552Z,9.87
2018-05-31T21:15:16.573Z,9.60
2018-05-31T21:17:44.806Z,7.67
2018-05-31T21:20:13.025Z,8.10
2018-05-31T21:22:41.268Z,7.93
2018-05-31T21:25:10.280Z,8.40
2018-05-31T21:27:38.513Z,7.70
2018-05-31T21:30:06.761Z,8.60
2018-05-31T21:32:35.015Z,8.57
2018-05-31T21:35:03.243Z,7.50
2018-05-31T21:37:31.484Z,7.93
2018-05-31T21:39:59.712Z,7.30
2018-05-31T21:42:28.740Z,7.80
2018-05-31T21:44:56.964Z,7.40
2018-05-31T21:47:25.189Z,7.40
2018-05-31T21:49:53.866Z,7.07
2018-05-31T21:52:22.087Z,6.90
2018-05-31T21:54:50.329Z,7.23
2018-05-31T21:57:18.574Z,7.47
2018-05-31T21:59:47.559Z,7.67
2018-05-31T22:02:15.828Z,7.97
2018-05-31T22:04:44.104Z,8.33
2018-05-31T22:07:12.311Z,8.93
2018-05-31T22:09:40.560Z,8.10
2018-05-31T22:12:08.798Z,8.63
2018-05-31T22:14:37.052Z,7.87
2018-05-31T22:17:05.290Z,9.03
2018-05-31T22:19:33.531Z,9.10
2018-05-31T22:22:01.778Z,8.80
2018-05-31T22:24:30.009Z,8.80
2018-05-31T22:26:58.232Z,7.93
2018-05-31T22:29:26.440Z,7.93
2018-05-31T22:31:54.710Z,8.30
2018-05-31T22:34:22.938Z,7.57
2018-05-31T22:36:51.944Z,7.67
2018-05-31T22:39:20.165Z,8.10
2018-05-31T22:41:48.404Z,7.63
2018-05-31T22:44:16.632Z,8.10
2018-05-31T22:46:44.885Z,11.57
2018-05-31T22:49:13.118Z,8.77
2018-05-31T22:51:42.127Z,8.50
2018-05-31T22:54:10.380Z,8.63
2018-05-31T22:56:39.380Z,8.73
2018-05-31T22:59:07.632Z,7.97
2018-05-31T23:01:35.884Z,8.40
2018-05-31T23:04:04.115Z,8.40
2018-05-31T23:06:32.353Z,7.90
2018-05-31T23:09:00.599Z,8.77
2018-05-31T23:11:28.849Z,8.73
2018-05-31T23:13:57.076Z,7.83
2018-05-31T23:16:25.327Z,7.30
2018-05-31T23:18:54.320Z,9.17
2018-05-31T23:21:22.535Z,8.53
2018-05-31T23:23:50.775Z,8.53
2018-05-31T23:26:19.789Z,9.27
2018-05-31T23:28:48.048Z,14.10
2018-05-31T23:31:16.274Z,8.93
2018-05-31T23:33:45.290Z,9.20
2018-05-31T23:36:13.511Z,8.67
2018-05-31T23:38:41.747Z,8.17
2018-05-31T23:41:09.995Z,8.90
2018-05-31T23:43:39.034Z,9.40
2018-05-31T23:46:07.248Z,9.67
2018-05-31T23:48:35.488Z,8.30
2018-05-31T23:51:03.715Z,8.70
2018-05-31T23:53:32.731Z,9.10
2018-05-31T23:56:00.948Z,8.93
2018-05-31T23:58:29.168Z,9.07
